Time;durP1;ratioP1;P1;durP2;ratioP2;P2;SDS_P1;SDS_P2;PMS_P1;PMS_P2;Temp;Humidity;BMP_temperature;BMP_pressure;BME280_temperature;BME280_humidity;BME280_pressure;Samples;Min_cycle;Max_cycle;Signal;HPM_P1;HPM_P2
2022/05/09 00:01:14;;;;;;;15.70;13.20;;;14.10;99.90;;;14.18;100.00;101366.19;4971563;28;20193;-67
2022/05/09 00:03:44;;;;;;;24.55;17.83;;;14.00;99.90;;;14.18;100.00;101375.03;4955606;28;20213;-66
2022/05/09 00:06:13;;;;;;;22.38;19.30;;;14.00;99.90;;;14.12;100.00;101351.06;4956065;28;20217;-66
2022/05/09 00:08:44;;;;;;;21.92;17.05;;;14.00;99.90;;;14.10;100.00;101358.13;4969548;28;20221;-67
2022/05/09 00:11:13;;;;;;;23.27;17.10;;;14.00;99.90;;;14.06;100.00;101351.00;4956702;28;20203;-66
2022/05/09 00:13:43;;;;;;;21.05;17.30;;;13.90;99.90;;;14.01;100.00;101350.06;4941200;28;20208;-66
2022/05/09 00:16:11;;;;;;;22.33;13.90;;;13.90;99.90;;;13.98;100.00;101342.06;4972028;28;20200;-67
2022/05/09 00:18:39;;;;;;;22.35;16.48;;;13.90;99.90;;;13.97;100.00;101338.50;4956352;28;20232;-66
2022/05/09 00:21:08;;;;;;;19.13;12.40;;;13.90;99.90;;;13.90;100.00;101343.75;4979972;28;20213;-66
2022/05/09 00:23:36;;;;;;;22.63;13.18;;;13.80;99.90;;;13.87;100.00;101341.94;4943601;28;20208;-67
2022/05/09 00:26:04;;;;;;;13.93;12.07;;;13.80;99.90;;;13.81;100.00;101339.22;4950322;28;20223;-66
2022/05/09 00:28:34;;;;;;;19.25;11.50;;;13.80;99.90;;;13.82;100.00;101342.78;4956420;28;20238;-67
2022/05/09 00:31:05;;;;;;;18.40;12.18;;;13.70;99.90;;;13.74;100.00;101345.34;4927246;28;20215;-66
2022/05/09 00:33:33;;;;;;;16.92;12.13;;;13.70;99.90;;;13.69;100.00;101342.66;4959643;28;20205;-66
2022/05/09 00:36:01;;;;;;;15.77;13.43;;;13.60;99.90;;;13.73;100.00;101344.47;4989681;28;20200;-67
2022/05/09 00:38:29;;;;;;;16.05;12.30;;;13.60;99.90;;;13.73;100.00;101340.91;4944530;28;20201;-66
2022/05/09 00:43:43;;;;;;;18.33;12.13;;;13.60;99.90;;;13.71;100.00;101330.25;4974192;28;20212;-67
2022/05/09 00:46:11;;;;;;;18.70;13.82;;;13.60;99.90;;;13.72;100.00;101329.38;4974199;28;20219;-66
2022/05/09 00:48:39;;;;;;;20.15;14.32;;;13.60;99.90;;;13.65;100.00;101329.31;4955857;28;20221;-66
2022/05/09 00:51:08;;;;;;;16.88;11.65;;;13.50;99.90;;;13.65;100.00;101327.53;4972732;28;20212;-66
2022/05/09 00:53:37;;;;;;;17.50;12.45;;;13.50;99.90;;;13.60;100.00;101328.38;4948515;28;20193;-66
2022/05/09 00:56:18;;;;;;;21.25;13.20;;;13.50;99.90;;;13.61;100.00;101343.44;4985599;28;20215;-66
2022/05/09 00:58:55;;;;;;;23.60;10.85;;;13.50;99.90;;;13.58;100.00;101336.31;4972219;28;20227;-66
2022/05/09 01:01:23;;;;;;;11.02;9.35;;;13.40;99.90;;;13.54;100.00;101336.28;4958803;28;20215;-66
2022/05/09 01:04:03;;;;;;;17.55;10.70;;;13.40;99.90;;;13.49;100.00;101330.91;4927430;28;20227;-66
2022/05/09 01:06:32;;;;;;;15.85;9.05;;;13.40;99.90;;;13.47;100.00;101337.97;4972395;28;20611;-66
2022/05/09 01:09:00;;;;;;;15.68;8.75;;;13.40;99.90;;;13.43;100.00;101337.03;4951590;28;20247;-66
2022/05/09 01:11:29;;;;;;;13.77;9.07;;;13.30;99.90;;;13.38;100.00;101333.44;4975165;28;20230;-66
2022/05/09 01:14:13;;;;;;;40.22;15.40;;;13.30;99.90;;;13.32;100.00;101341.34;4971075;28;20213;-66
2022/05/09 01:16:41;;;;;;;25.23;12.02;;;13.30;99.90;;;13.34;100.00;101338.69;4988003;28;20200;-66
2022/05/09 01:19:31;;;;;;;17.20;9.90;;;13.20;99.90;;;13.35;100.00;101340.47;4969974;28;20224;-66
2022/05/09 01:22:00;;;;;;;20.25;10.38;;;13.20;99.90;;;13.28;100.00;101338.63;4992486;28;20209;-66
2022/05/09 01:24:30;;;;;;;12.07;8.80;;;13.20;99.90;;;13.20;100.00;101337.63;4971277;28;20212;-66
2022/05/09 01:26:58;;;;;;;10.63;8.10;;;13.20;99.90;;;13.17;100.00;101346.47;4956614;28;20213;-66
2022/05/09 01:30:06;;;;;;;12.10;7.30;;;13.10;99.90;;;13.11;100.00;101343.69;4954903;28;20227;-66
2022/05/09 01:32:50;;;;;;;17.13;8.90;;;13.10;99.90;;;13.08;100.00;101354.28;4936405;28;20212;-66
2022/05/09 01:35:26;;;;;;;18.25;8.80;;;13.10;99.90;;;13.07;100.00;101361.34;4991241;28;20587;-66
2022/05/09 01:38:32;;;;;;;10.38;6.38;;;13.00;99.90;;;13.04;100.00;101353.34;4945502;28;20274;-66
2022/05/09 01:41:00;;;;;;;18.05;8.50;;;13.00;99.90;;;12.98;100.00;101355.88;4952233;28;20209;-66
2022/05/09 01:43:36;;;;;;;15.05;8.80;;;12.90;99.90;;;12.96;100.00;101364.69;4958775;28;20204;-66
2022/05/09 01:46:08;;;;;;;17.25;8.88;;;12.90;99.90;;;12.93;100.00;101369.97;4975236;28;20221;-66
2022/05/09 01:51:23;;;;;;;18.92;8.95;;;12.90;99.90;;;12.90;100.00;101380.53;4980566;28;20230;-66
2022/05/09 01:53:52;;;;;;;23.23;11.60;;;12.80;99.90;;;12.88;100.00;101379.63;4979510;28;20220;-66
2022/05/09 01:56:25;;;;;;;17.83;9.63;;;12.80;99.90;;;12.87;100.00;101385.78;4940744;28;20594;-66
2022/05/09 01:58:53;;;;;;;19.17;7.80;;;12.80;99.90;;;12.87;100.00;101396.41;4952257;28;20247;-67
2022/05/09 02:01:23;;;;;;;14.45;7.50;;;12.70;99.90;;;12.85;100.00;101400.81;4956221;28;20208;-66
2022/05/09 02:03:52;;;;;;;16.77;6.95;;;12.70;99.90;;;12.83;100.00;101399.03;4956528;28;20227;-67
2022/05/09 02:06:21;;;;;;;19.70;8.35;;;12.70;99.90;;;12.83;100.00;101401.69;4958561;28;20224;-66
2022/05/09 02:08:49;;;;;;;20.50;7.90;;;12.70;99.90;;;12.83;100.00;101408.75;4953483;28;20220;-66
2022/05/09 02:11:18;;;;;;;19.55;8.10;;;12.60;99.90;;;12.82;100.00;101413.16;4973951;28;20205;-66
2022/05/09 02:13:45;;;;;;;21.35;6.82;;;12.60;99.90;;;12.78;100.00;101416.66;4970722;28;20205;-66
2022/05/09 02:16:14;;;;;;;17.70;7.55;;;12.70;99.90;;;12.81;100.00;101418.44;4979667;28;20575;-66
2022/05/09 02:18:43;;;;;;;15.85;7.05;;;12.60;99.90;;;12.77;100.00;101419.28;4955716;28;20224;-66
2022/05/09 02:21:11;;;;;;;18.63;9.38;;;12.70;99.90;;;12.77;100.00;101422.81;4972506;28;20209;-66
2022/05/09 02:23:39;;;;;;;17.23;7.57;;;12.60;99.90;;;12.73;100.00;101422.75;4977158;28;20212;-66
2022/05/09 02:26:07;;;;;;;19.55;8.98;;;12.60;99.90;;;12.72;100.00;101420.97;4971004;28;20220;-66
2022/05/09 02:28:35;;;;;;;7.15;3.65;;;12.60;99.90;;;12.74;100.00;101425.44;4970042;28;20969;-66
2022/05/09 02:31:03;;;;;;;15.30;6.60;;;12.60;99.90;;;12.68;100.00;101421.78;4955617;28;20610;-66
2022/05/09 02:33:31;;;;;;;8.60;7.80;;;12.60;99.90;;;12.69;100.00;101426.22;4969668;28;20212;-66
2022/05/09 02:35:59;;;;;;;16.88;7.80;;;12.60;99.90;;;12.69;100.00;101421.81;4971967;28;20620;-67
2022/05/09 02:38:29;;;;;;;19.75;7.22;;;12.50;99.90;;;12.67;100.00;101426.19;4953429;28;20197;-66
2022/05/09 02:40:57;;;;;;;9.93;4.20;;;12.50;99.90;;;12.68;100.00;101440.38;4960746;28;21654;-66
2022/05/09 02:43:25;;;;;;;13.38;6.68;;;12.50;99.90;;;12.60;100.00;101434.03;4958287;28;20209;-66
2022/05/09 02:45:53;;;;;;;16.17;7.60;;;12.50;99.90;;;12.59;100.00;101438.44;4956625;28;20211;-66
2022/05/09 02:48:21;;;;;;;18.80;6.32;;;12.50;99.90;;;12.60;100.00;101442.88;4954918;28;20232;-66
2022/05/09 02:50:49;;;;;;;14.10;6.38;;;12.40;99.90;;;12.59;100.00;101451.72;4955436;28;20213;-66
2022/05/09 02:53:16;;;;;;;19.92;7.35;;;12.40;99.90;;;12.60;100.00;101457.91;4957166;28;20220;-66
2022/05/09 02:55:44;;;;;;;17.88;6.80;;;12.40;99.90;;;12.57;100.00;101453.44;4972640;28;20712;-66
2022/05/09 02:58:13;;;;;;;14.95;4.85;;;12.40;99.90;;;12.54;100.00;101458.72;4959257;28;20204;-66
2022/05/09 03:00:41;;;;;;;18.17;8.63;;;12.40;99.90;;;12.52;100.00;101459.53;4969685;28;20228;-66
2022/05/09 03:05:57;;;;;;;15.32;4.90;;;12.40;99.90;;;12.46;100.00;101466.53;4983832;28;20201;-66
2022/05/09 03:08:25;;;;;;;21.85;6.75;;;12.30;99.90;;;12.47;100.00;101475.38;4973951;28;20568;-66
2022/05/09 03:10:53;;;;;;;17.08;5.40;;;12.30;99.90;;;12.43;100.00;101471.78;4966787;28;20232;-66
2022/05/09 03:13:21;;;;;;;18.23;6.63;;;12.30;99.90;;;12.39;100.00;101480.56;4977776;28;20208;-66
2022/05/09 03:15:49;;;;;;;17.45;5.18;;;12.30;99.90;;;12.40;100.00;101482.34;4972798;28;20200;-66
2022/05/09 03:18:22;;;;;;;19.80;6.20;;;12.30;99.90;;;12.35;100.00;101486.66;4959265;28;20205;-66
2022/05/09 03:20:51;;;;;;;20.05;6.55;;;12.30;99.90;;;12.33;100.00;101476.91;4966963;28;20213;-66
2022/05/09 03:23:19;;;;;;;27.73;8.52;;;12.20;99.90;;;12.33;100.00;101487.50;4957483;28;20202;-66
2022/05/09 03:25:47;;;;;;;15.73;6.10;;;12.20;99.90;;;12.30;100.00;101491.00;4982849;28;20211;-66
2022/05/09 03:28:24;;;;;;;15.93;5.05;;;12.20;99.90;;;12.27;100.00;101484.75;4961010;28;20228;-66
2022/05/09 03:30:57;;;;;;;17.40;7.22;;;12.20;99.90;;;12.23;100.00;101482.91;4949148;28;20212;-66
2022/05/09 03:33:27;;;;;;;19.45;6.50;;;12.20;99.90;;;12.22;100.00;101497.91;4959292;28;20209;-67
2022/05/09 03:35:59;;;;;;;15.00;4.32;;;12.10;99.90;;;12.17;100.00;101489.88;4975552;28;20201;-66
2022/05/09 03:38:27;;;;;;;13.88;4.97;;;12.10;99.90;;;12.16;100.00;101501.34;4991179;28;20204;-66
2022/05/09 03:40:55;;;;;;;15.63;4.38;;;12.10;99.90;;;12.20;100.00;101512.00;4952191;28;20223;-66
2022/05/09 03:43:23;;;;;;;16.50;5.45;;;12.10;99.90;;;12.16;100.00;101496.03;4971891;28;20205;-66
2022/05/09 03:45:52;;;;;;;16.85;5.53;;;12.10;99.90;;;12.10;100.00;101495.03;4977247;28;20212;-66
2022/05/09 03:48:20;;;;;;;14.23;7.82;;;12.10;99.90;;;12.04;100.00;101501.09;4958555;28;20227;-66
2022/05/09 03:50:48;;;;;;;15.30;6.63;;;12.00;99.90;;;11.98;100.00;101506.28;4940521;28;20666;-66
2022/05/09 03:53:16;;;;;;;7.88;2.85;;;12.00;99.90;;;11.97;100.00;101514.19;4960215;28;20208;-66
2022/05/09 03:55:44;;;;;;;17.20;7.55;;;11.90;99.90;;;11.99;100.00;101520.44;4966595;28;20656;-66
2022/05/09 03:58:14;;;;;;;13.32;5.18;;;11.90;99.90;;;11.96;100.00;101521.25;4974736;28;20660;-66
2022/05/09 04:00:43;;;;;;;13.43;5.30;;;11.90;99.90;;;11.96;100.00;101525.66;4968492;28;20216;-66
2022/05/09 04:03:12;;;;;;;13.63;3.53;;;11.90;99.90;;;11.92;100.00;101530.00;4957544;28;20700;-66
2022/05/09 04:05:41;;;;;;;15.10;4.47;;;11.90;99.90;;;11.90;100.00;101542.34;4939364;28;20677;-66
2022/05/09 04:08:16;;;;;;;11.48;3.58;;;11.80;99.90;;;11.89;100.00;101534.34;4958624;28;20228;-66
2022/05/09 04:10:45;;;;;;;25.13;7.95;;;11.90;99.90;;;11.91;100.00;101543.22;4969489;28;20222;-65
2022/05/09 04:13:14;;;;;;;15.13;5.75;;;11.80;99.90;;;11.86;100.00;101537.84;4976285;28;20209;-66
2022/05/09 04:18:42;;;;;;;18.08;6.38;;;11.80;99.90;;;11.85;100.00;101565.19;4977498;28;20212;-66
2022/05/09 04:21:13;;;;;;;11.93;4.38;;;11.80;99.90;;;11.85;100.00;101568.75;4972993;28;20217;-66
2022/05/09 04:23:42;;;;;;;16.65;5.78;;;11.70;99.90;;;11.84;100.00;101574.91;4980636;28;20204;-66
2022/05/09 04:26:11;;;;;;;15.05;4.70;;;11.70;99.90;;;11.86;100.00;101582.91;4955275;28;20201;-66
2022/05/09 04:28:39;;;;;;;15.88;4.63;;;11.80;99.90;;;11.82;100.00;101570.44;4969293;28;20237;-66
2022/05/09 04:31:07;;;;;;;15.43;6.38;;;11.80;99.90;;;11.87;100.00;101583.78;4974652;28;20205;-66
2022/05/09 04:33:35;;;;;;;14.93;4.50;;;11.80;99.90;;;11.87;100.00;101583.78;4971970;28;20220;-66
2022/05/09 04:36:04;;;;;;;12.20;4.47;;;11.70;99.90;;;11.82;100.00;101589.00;4954026;28;20204;-66
2022/05/09 04:38:33;;;;;;;17.77;5.32;;;11.80;99.90;;;11.89;100.00;101598.88;4972821;28;20201;-66
2022/05/09 04:41:02;;;;;;;17.92;6.32;;;11.80;99.90;;;11.89;100.00;101600.63;4979977;28;20598;-66
2022/05/09 04:43:31;;;;;;;14.88;8.05;;;11.70;99.90;;;11.89;100.00;101601.53;4990502;28;20208;-66
2022/05/09 04:46:00;;;;;;;16.52;5.50;;;11.80;99.90;;;11.86;100.00;101604.09;4989636;28;20215;-66
2022/05/09 04:48:29;;;;;;;15.07;4.80;;;11.70;99.90;;;11.91;100.00;101612.16;4971000;28;20225;-66
2022/05/09 04:50:58;;;;;;;13.32;4.82;;;11.70;99.90;;;11.94;100.00;101623.72;4943101;28;20581;-66
2022/05/09 04:53:26;;;;;;;9.10;2.70;;;11.80;99.90;;;11.98;100.00;101622.03;4972853;28;20680;-66
2022/05/09 04:55:58;;;;;;;13.88;4.47;;;11.80;99.90;;;12.00;100.00;101617.66;4959235;28;20202;-67
2022/05/09 04:58:26;;;;;;;20.38;7.22;;;11.80;99.90;;;12.00;100.00;101628.28;4954937;28;20205;-66
2022/05/09 05:00:55;;;;;;;16.42;5.15;;;11.80;99.90;;;12.06;100.00;101637.25;4954596;28;20213;-66
2022/05/09 05:03:25;;;;;;;18.52;5.10;;;11.80;99.90;;;12.14;100.00;101632.13;4972178;28;20216;-66
2022/05/09 05:05:53;;;;;;;16.70;4.05;;;11.90;99.90;;;12.20;100.00;101637.56;4973449;28;20216;-66
2022/05/09 05:08:22;;;;;;;15.27;5.35;;;12.00;99.90;;;12.28;100.00;101633.31;4967477;28;20235;-66
2022/05/09 05:10:54;;;;;;;13.13;5.40;;;12.00;99.90;;;12.33;100.00;101636.06;4941086;28;20205;-66
2022/05/09 05:13:26;;;;;;;9.10;3.55;;;12.10;99.90;;;12.38;100.00;101631.75;4958845;28;20208;-66
2022/05/09 05:15:55;;;;;;;18.63;7.45;;;12.20;99.90;;;12.45;100.00;101633.66;4974538;28;20201;-65
2022/05/09 05:18:26;;;;;;;14.20;5.05;;;12.20;99.90;;;12.54;100.00;101638.25;4930272;28;20214;-66
2022/05/09 05:20:55;;;;;;;14.57;5.80;;;12.30;99.90;;;12.64;100.00;101640.22;4931947;28;20205;-66
2022/05/09 05:23:24;;;;;;;15.68;5.97;;;12.30;99.90;;;12.71;100.00;101636.81;4962910;28;20212;-66
2022/05/09 05:25:52;;;;;;;16.15;5.25;;;12.40;99.90;;;12.74;100.00;101635.13;4958820;28;20220;-66
2022/05/09 05:28:20;;;;;;;17.38;5.78;;;12.40;99.90;;;12.85;100.00;101647.72;4941557;28;20232;-66
2022/05/09 05:30:49;;;;;;;10.35;5.00;;;12.50;99.90;;;12.93;100.00;101632.81;4941571;28;20205;-66
2022/05/09 05:33:17;;;;;;;21.10;8.82;;;12.60;99.90;;;13.01;100.00;101628.56;4957359;28;20212;-66
2022/05/09 05:35:45;;;;;;;15.25;9.80;;;12.70;99.90;;;13.08;100.00;101630.47;4974796;28;20215;-66
2022/05/09 05:38:13;;;;;;;21.48;8.02;;;12.70;99.90;;;13.11;100.00;101620.78;4942565;28;20215;-66
2022/05/09 05:40:42;;;;;;;14.52;6.43;;;12.80;99.90;;;13.18;100.00;101607.66;4989373;28;20587;-66
2022/05/09 05:43:14;;;;;;;14.35;5.05;;;12.90;99.90;;;13.27;100.00;101602.50;4975389;28;20212;-66
2022/05/09 05:45:46;;;;;;;16.73;11.05;;;12.90;99.90;;;13.34;100.00;101609.69;4974103;28;20223;-66
2022/05/09 05:48:14;;;;;;;15.40;6.97;;;13.00;99.90;;;13.43;100.00;101608.09;4959203;28;20243;-66
2022/05/09 05:50:42;;;;;;;16.48;7.65;;;13.10;99.90;;;13.52;100.00;101604.69;4973190;28;20239;-66
2022/05/09 05:53:10;;;;;;;11.57;5.07;;;13.20;99.90;;;13.55;100.00;101595.84;4974667;28;20197;-66
2022/05/09 05:55:39;;;;;;;17.00;10.45;;;13.20;99.90;;;13.62;100.00;101605.72;4973620;28;20204;-66
2022/05/09 05:58:07;;;;;;;18.48;9.43;;;13.30;99.90;;;13.69;100.00;101602.28;4958434;28;20219;-66
2022/05/09 06:00:36;;;;;;;10.15;3.00;;;13.40;99.90;;;13.78;100.00;101608.63;4973259;28;20228;-66
2022/05/09 06:03:06;;;;;;;14.55;4.32;;;13.40;99.90;;;13.81;100.00;101604.22;4974679;28;20215;-66
2022/05/09 06:05:34;;;;;;;17.80;6.53;;;13.50;99.90;;;13.82;100.00;101593.59;4974489;28;20591;-66
2022/05/09 06:08:02;;;;;;;18.10;6.35;;;13.50;99.90;;;13.83;100.00;101582.09;4973205;28;20215;-66
2022/05/09 06:10:30;;;;;;;14.52;5.47;;;13.60;99.90;;;13.99;100.00;101604.47;4958156;28;20220;-66
2022/05/09 06:13:02;;;;;;;15.00;4.95;;;13.60;99.90;;;13.94;100.00;101592.88;4972918;28;20208;-66
2022/05/09 06:15:34;;;;;;;7.97;4.88;;;13.70;99.90;;;14.02;100.00;101591.22;4953435;28;20649;-66
2022/05/09 06:18:12;;;;;;;7.47;3.17;;;13.70;99.90;;;14.09;100.00;101593.97;4963213;28;20205;-66
2022/05/09 06:20:43;;;;;;;18.00;6.43;;;13.80;99.90;;;14.16;100.00;101586.97;4971157;28;20693;-66
2022/05/09 06:23:14;;;;;;;26.60;7.45;;;13.80;99.90;;;14.18;100.00;101581.66;4955556;28;20212;-66
2022/05/09 06:25:43;;;;;;;14.88;5.10;;;13.90;99.90;;;14.50;100.00;101614.06;4973887;28;20205;-66
2022/05/09 06:28:11;;;;;;;13.38;5.82;;;14.00;99.90;;;14.63;100.00;101614.22;4973215;28;20219;-66
2022/05/09 06:30:39;;;;;;;15.85;4.05;;;14.20;99.90;;;14.55;100.00;101588.38;4956015;28;20228;-66
2022/05/09 06:33:08;;;;;;;12.63;3.67;;;14.20;99.90;;;14.73;100.00;101607.22;4954870;28;20696;-66
2022/05/09 06:35:44;;;;;;;10.23;4.05;;;14.40;99.90;;;14.66;100.00;101582.31;4969846;28;20223;-66
2022/05/09 06:38:15;;;;;;;9.95;4.72;;;14.40;99.90;;;14.59;100.00;101563.59;4971859;28;20201;-66
2022/05/09 06:40:44;;;;;;;14.25;5.47;;;14.40;99.90;;;14.77;100.00;101581.50;4957157;28;20201;-66
2022/05/09 06:43:12;;;;;;;13.35;4.07;;;14.50;99.90;;;14.88;100.00;101588.75;4959855;28;20227;-66
2022/05/09 06:45:41;;;;;;;14.05;6.40;;;14.50;99.90;;;15.04;100.00;101589.78;4956768;28;20200;-66
2022/05/09 06:48:10;;;;;;;17.45;7.43;;;14.70;99.90;;;15.18;100.00;101581.91;4966063;28;20212;-66
2022/05/09 06:50:40;;;;;;;20.08;9.15;;;14.80;99.90;;;15.05;100.00;101565.81;4933390;28;20220;-66
2022/05/09 06:53:10;;;;;;;20.83;6.03;;;14.80;99.90;;;15.26;100.00;101578.41;4953422;28;20201;-66
2022/05/09 06:55:49;;;;;;;15.80;6.97;;;14.90;99.90;;;15.37;100.00;101576.72;4973670;28;20204;-66
2022/05/09 06:58:21;;;;;;;16.13;5.88;;;15.00;99.90;;;15.53;100.00;101576.84;4971735;28;20204;-66
2022/05/09 07:00:51;;;;;;;14.00;6.47;;;15.10;99.90;;;15.48;100.00;101558.16;4952956;28;20209;-66
2022/05/09 07:03:21;;;;;;;17.85;5.28;;;15.20;99.90;;;15.64;100.00;101568.09;4955499;28;20209;-66
2022/05/09 07:05:51;;;;;;;18.08;9.27;;;15.20;99.90;;;15.75;100.00;101546.81;4954705;28;20209;-66
2022/05/09 07:08:22;;;;;;;21.52;6.85;;;15.40;99.90;;;15.90;100.00;101548.69;4949118;28;20215;-66
2022/05/09 07:10:51;;;;;;;15.25;3.90;;;15.50;99.90;;;16.29;100.00;101558.63;4956588;28;20212;-66
2022/05/09 07:13:40;;;;;;;17.58;4.28;;;15.70;99.90;;;16.16;100.00;101525.66;4940909;28;20201;-66
2022/05/09 07:16:09;;;;;;;14.02;4.35;;;15.90;99.90;;;16.17;100.00;101524.78;4972626;28;20205;-66
2022/05/09 07:18:38;;;;;;;12.82;3.78;;;16.00;99.90;;;16.44;100.00;101556.00;4947427;28;20225;-66
2022/05/09 07:21:08;;;;;;;35.53;7.93;;;16.10;99.90;;;16.47;100.00;101526.63;4970645;28;20210;-66
2022/05/09 07:23:36;;;;;;;14.52;3.50;;;16.30;99.90;;;16.43;100.00;101524.84;4970400;28;20209;-66
2022/05/09 07:26:06;;;;;;;17.83;4.47;;;16.30;99.90;;;16.70;100.00;101523.16;4956641;28;20205;-66
2022/05/09 07:28:33;;;;;;;8.07;2.22;;;16.40;99.90;;;16.87;100.00;101516.03;4991414;28;20189;-66
2022/05/09 07:31:02;;;;;;;12.82;3.65;;;16.50;99.90;;;16.83;100.00;101498.22;4969128;28;20205;-66
2022/05/09 07:33:30;;;;;;;15.00;5.32;;;16.70;99.90;;;17.16;100.00;101522.31;4977954;28;20204;-66
2022/05/09 07:35:58;;;;;;;15.30;3.90;;;16.80;99.90;;;17.16;100.00;101494.69;4956458;28;20209;-67
2022/05/09 07:38:26;;;;;;;15.30;4.38;;;17.00;99.90;;;17.36;100.00;101505.34;4958139;28;20201;-66
2022/05/09 07:40:54;;;;;;;14.80;3.30;;;17.10;99.90;;;17.03;100.00;101434.13;4988641;28;20296;-66
2022/05/09 07:43:26;;;;;;;25.33;6.18;;;17.00;99.90;;;17.04;100.00;101427.88;4988012;28;20324;-66
2022/05/09 07:45:55;;;;;;;5.43;2.00;;;17.00;99.90;;;17.56;100.00;101483.00;4944605;28;20224;-67
2022/05/09 07:48:26;;;;;;;14.30;3.17;;;17.20;99.90;;;17.50;100.00;101442.91;4940922;28;20204;-66
2022/05/09 07:50:57;;;;;;;15.82;3.50;;;17.40;99.90;;;17.85;100.00;101479.38;4978432;28;20217;-66
2022/05/09 07:53:30;;;;;;;18.10;4.07;;;17.60;99.90;;;17.75;100.00;101448.19;4941856;28;20212;-66
2022/05/09 07:56:02;;;;;;;17.00;3.65;;;17.60;99.90;;;17.95;100.00;101470.41;4967304;28;20594;-66
2022/05/09 07:58:31;;;;;;;11.77;2.60;;;17.80;99.90;;;17.89;100.00;101438.31;4943851;28;20201;-66
2022/05/09 08:00:59;;;;;;;12.68;2.70;;;17.90;99.90;;;18.22;100.00;101429.22;4959212;28;20216;-66
2022/05/09 08:03:30;;;;;;;14.88;3.50;;;18.00;99.90;;;18.19;100.00;101411.38;4974131;28;20628;-66
2022/05/09 08:06:02;;;;;;;16.15;3.47;;;18.10;99.90;;;18.44;100.00;101448.72;4970146;28;20197;-67
2022/05/09 08:08:35;;;;;;;16.83;3.97;;;18.20;99.90;;;18.27;100.00;101402.44;4982666;28;20220;-67
2022/05/09 08:11:11;;;;;;;13.10;2.80;;;18.30;99.90;;;18.41;100.00;101406.78;4960076;28;20583;-67
2022/05/09 08:13:42;;;;;;;13.07;3.13;;;18.40;99.90;;;18.63;100.00;101430.75;4974080;28;20212;-67
2022/05/09 08:16:11;;;;;;;10.45;2.60;;;18.50;99.90;;;18.93;100.00;101408.16;4971537;28;20205;-67
2022/05/09 08:18:40;;;;;;;17.80;4.10;;;18.80;99.90;;;18.92;100.00;101375.09;4982893;28;20223;-67
2022/05/09 08:21:09;;;;;;;15.07;8.10;;;19.10;99.90;;;19.18;96.55;101350.69;4989819;28;20205;-67
2022/05/09 08:23:45;;;;;;;17.38;6.75;;;19.40;99.90;;;19.48;97.52;101361.03;4958048;28;20208;-67
2022/05/09 08:26:15;;;;;;;13.13;4.10;;;19.70;99.90;;;19.42;98.99;101371.84;4975335;28;20204;-67
2022/05/09 08:28:44;;;;;;;19.25;5.18;;;19.80;99.90;;;19.77;95.08;101359.81;4953100;28;20236;-67
2022/05/09 08:31:16;;;;;;;20.83;5.15;;;19.70;99.90;;;19.64;92.08;101275.91;4966564;28;20225;-67
2022/05/09 08:33:49;;;;;;;16.65;3.90;;;19.90;99.90;;;19.61;92.29;101257.16;4972842;28;20200;-67
2022/05/09 08:39:08;;;;;;;18.63;4.25;;;20.30;99.90;;;20.03;95.13;101329.88;4955357;28;20220;-67
2022/05/09 08:42:06;;;;;;;18.15;4.28;;;20.50;99.90;;;19.61;93.67;101248.22;4942349;28;20208;-67
2022/05/09 08:45:08;;;;;;;13.68;3.67;;;20.40;99.90;;;20.23;94.66;101321.50;4981278;28;20206;-67
2022/05/09 08:48:35;;;;;;;11.13;2.80;;;20.50;99.90;;;20.16;90.77;101212.41;4983582;28;20200;-67
2022/05/09 08:51:19;;;;;;;16.73;3.83;;;20.90;99.90;;;19.93;91.69;101191.34;4932309;28;20239;-67
2022/05/09 08:53:57;;;;;;;12.73;3.22;;;20.90;99.90;;;20.36;94.29;101280.09;4986422;28;20208;-67
2022/05/09 08:56:25;;;;;;;12.07;3.05;;;20.80;99.90;;;20.23;89.48;101188.09;4963925;28;20204;-67
2022/05/09 08:59:11;;;;;;;13.23;2.90;;;21.00;99.90;;;20.73;90.80;101253.44;4938503;28;20238;-67
2022/05/09 09:01:58;;;;;;;16.20;3.67;;;21.10;99.90;;;20.11;89.20;101134.63;4968897;28;20208;-67
2022/05/09 09:04:35;;;;;;;14.60;3.30;;;21.20;99.90;;;20.60;92.18;101231.31;4961982;28;20287;-66
2022/05/09 09:07:49;;;;;;;15.15;4.22;;;21.30;99.90;;;20.87;92.92;101264.84;4953049;28;20217;-66
2022/05/09 09:11:00;;;;;;;10.27;2.30;;;21.50;99.90;;;21.52;88.88;101250.91;4949406;28;20228;-67
2022/05/09 09:13:33;;;;;;;9.75;2.42;;;22.10;99.90;;;22.18;87.35;101251.13;4971271;28;20211;-67
2022/05/09 09:16:22;;;;;;;16.77;3.85;;;22.70;99.90;;;20.86;90.07;101117.88;4968730;28;20672;-67
2022/05/09 09:19:14;;;;;;;10.10;3.00;;;22.40;99.90;;;20.90;90.35;101159.03;4973291;28;20254;-67
2022/05/09 09:21:58;;;;;;;13.82;3.67;;;22.00;99.90;;;20.99;89.64;101148.06;4955562;28;20232;-67
2022/05/09 09:25:11;;;;;;;13.05;4.20;;;22.00;99.90;;;22.30;87.40;101231.94;4972477;28;20203;-67
2022/05/09 09:27:46;;;;;;;17.10;4.40;;;22.60;99.90;;;21.92;83.51;101110.81;4968425;28;20693;-67
2022/05/09 09:30:19;;;;;;;17.27;3.97;;;23.40;99.90;;;21.44;86.06;101067.22;4958277;28;20216;-67
2022/05/09 09:33:01;;;;;;;14.93;3.53;;;23.30;99.90;;;22.13;88.00;101177.63;4963675;28;20211;-67
2022/05/09 09:35:34;;;;;;;14.55;3.42;;;23.20;99.90;;;22.26;85.92;101151.25;4981028;28;20215;-67
2022/05/09 09:38:19;;;;;;;7.68;1.85;;;23.30;99.90;;;22.02;81.89;101047.69;4956736;28;20199;-68
2022/05/09 09:40:47;;;;;;;15.25;3.72;;;23.90;99.90;;;22.04;85.92;101100.63;4986143;28;20207;-67
2022/05/09 09:43:19;;;;;;;11.52;2.58;;;23.70;99.90;;;22.28;84.32;101098.19;4947272;28;20208;-67
2022/05/09 09:46:02;;;;;;;10.30;2.45;;;24.00;99.90;;;22.90;79.91;101076.56;4974333;28;20267;-67
2022/05/09 09:48:31;;;;;;;12.65;2.67;;;24.60;99.90;;;24.04;80.60;101161.00;4967583;28;20208;-67
2022/05/09 09:51:17;;;;;;;12.43;2.95;;;25.30;99.90;;;23.08;78.97;100988.75;4958688;28;20239;-67
2022/05/09 09:53:48;;;;;;;14.50;3.28;;;25.40;99.90;;;22.93;81.48;101007.22;4957360;28;20204;-67
2022/05/09 09:56:22;;;;;;;15.10;3.15;;;25.10;99.90;;;22.11;81.38;100912.81;4984832;28;20204;-67
2022/05/09 09:58:55;;;;;;;14.85;3.20;;;24.20;99.90;;;22.67;85.54;101031.41;4956918;28;20226;-68
2022/05/09 10:01:33;;;;;;;27.67;6.00;;;24.20;99.90;;;22.92;84.23;101040.53;4939545;28;20203;-68
2022/05/09 10:04:15;;;;;;;14.85;3.47;;;24.00;99.90;;;22.97;84.36;101034.97;4964125;28;20211;-68
2022/05/09 10:07:06;;;;;;;18.33;4.00;;;24.30;99.90;;;22.48;84.01;100960.16;4954922;28;20293;-68
2022/05/09 10:10:01;;;;;;;14.35;3.15;;;24.20;99.90;;;23.21;80.91;101014.41;4925748;28;20224;-68
2022/05/09 10:12:32;;;;;;;13.25;2.80;;;24.40;99.90;;;22.97;81.89;100944.16;4972518;28;20207;-68
2022/05/09 10:15:16;;;;;;;13.18;2.83;;;24.40;99.90;;;23.61;79.40;100981.56;4970630;28;20223;-68
2022/05/09 10:17:43;;;;;;;14.18;3.05;;;25.00;99.90;;;23.33;79.23;100926.72;4957579;28;20224;-70
2022/05/09 10:20:42;;;;;;;19.30;4.40;;;25.10;99.90;;;23.33;79.26;100922.22;4952667;28;20235;-68
2022/05/09 10:26:29;;;;;;;17.98;4.22;;;25.50;99.90;;;23.48;79.34;100854.22;4969786;28;20207;-68
2022/05/09 10:29:06;;;;;;;12.25;2.90;;;25.90;99.90;;;24.18;80.65;100988.44;4968320;28;20232;-68
2022/05/09 10:31:53;;;;;;;18.05;4.32;;;25.90;99.90;;;24.21;79.57;100918.03;4933922;28;20211;-68
2022/05/09 10:34:44;;;;;;;5.82;1.38;;;26.50;99.90;;;23.91;80.41;100887.69;4954640;28;20595;-68
2022/05/09 10:37:36;;;;;;;13.57;2.92;;;26.00;99.90;;;24.03;77.36;100868.31;4973791;28;20204;-68
2022/05/09 10:40:13;;;;;;;15.02;3.35;;;25.80;99.90;;;24.32;74.71;100832.03;4953599;28;20219;-68